Time;durP1;ratioP1;P1;durP2;ratioP2;P2;SDS_P1;SDS_P2;PMS_P1;PMS_P2;Temp;Humidity;BMP_temperature;BMP_pressure;BME280_temperature;BME280_humidity;BME280_pressure;Samples;Min_cycle;Max_cycle;Signal;HPM_P1;HPM_P2
2022/08/28 00:00:19;;;;;;;3.25;1.25;;;;;;;17.08;64.74;100444.47;5055646;28;19920;-78
2022/08/28 00:02:45;;;;;;;3.55;1.10;;;;;;;16.97;64.87;100444.34;5055673;28;20072;-79
2022/08/28 00:05:12;;;;;;;2.33;0.80;;;;;;;16.78;65.77;100447.16;5055792;28;20052;-79
2022/08/28 00:07:38;;;;;;;7.53;1.30;;;;;;;16.81;65.91;100449.19;5055496;28;20037;-78
2022/08/28 00:10:06;;;;;;;6.82;1.70;;;;;;;16.69;65.99;100443.88;5037577;28;20037;-79
2022/08/28 00:12:31;;;;;;;4.18;1.40;;;;;;;16.65;66.26;100451.25;5055620;28;20048;-79
2022/08/28 00:14:56;;;;;;;;;;;;;;;16.61;66.23;100455.88;5055496;28;20360;-78
2022/08/28 00:17:21;;;;;;;4.47;1.20;;;;;;;16.63;66.11;100450.81;5055102;28;19912;-78
2022/08/28 00:19:47;;;;;;;3.23;1.27;;;;;;;16.61;66.22;100453.13;5055211;28;20274;-79
2022/08/28 00:22:12;;;;;;;;;;;;;;;16.60;66.32;100451.53;5055822;28;20264;-78
2022/08/28 00:24:37;;;;;;;3.13;1.30;;;;;;;16.70;66.14;100456.47;5055106;28;19922;-78
2022/08/28 00:29:47;;;;;;;9.15;1.35;;;;;;;16.57;66.40;100457.78;5055232;28;20036;-79
2022/08/28 00:32:12;;;;;;;2.67;1.02;;;;;;;16.54;66.50;100460.09;5055248;28;20392;-78
2022/08/28 00:34:37;;;;;;;;;;;;;;;16.54;66.32;100460.09;5054842;28;20363;-78
2022/08/28 00:37:03;;;;;;;6.45;1.52;;;;;;;16.58;66.39;100465.66;5055011;28;20296;-78
2022/08/28 00:39:28;;;;;;;;;;;;;;;16.44;66.72;100457.94;5055146;28;20044;-78
2022/08/28 00:41:54;;;;;;;4.40;1.40;;;;;;;16.40;67.19;100459.84;5054954;28;19963;-78
2022/08/28 00:44:21;;;;;;;;;;;;;;;16.25;67.43;100467.03;5055662;28;20029;-79
2022/08/28 00:46:49;;;;;;;4.00;1.27;;;;;;;16.21;67.65;100463.44;5054936;28;19979;-79
2022/08/28 00:49:18;;;;;;;5.05;1.30;;;;;;;16.15;67.92;100459.41;5054639;28;20494;-79
2022/08/28 00:54:31;;;;;;;4.03;1.40;;;;;;;16.11;68.04;100460.47;5054804;28;20159;-79
2022/08/28 00:56:57;;;;;;;7.10;1.60;;;;;;;16.20;67.87;100450.06;5054903;28;20036;-78
2022/08/28 00:59:24;;;;;;;;;;;;;;;16.27;67.72;100460.38;5037035;28;20029;-79
2022/08/28 01:01:54;;;;;;;6.13;1.90;;;;;;;16.21;67.82;100459.88;5055159;28;19943;-78
2022/08/28 01:04:21;;;;;;;5.35;2.15;;;;;;;16.24;67.85;100459.16;5054375;28;20053;-78
2022/08/28 01:06:52;;;;;;;7.28;1.73;;;;;;;16.13;68.08;100456.22;5054492;28;20036;-79
2022/08/28 01:09:19;;;;;;;5.03;1.85;;;;;;;16.09;68.53;100462.78;5054177;28;20395;-79
2022/08/28 01:11:47;;;;;;;7.68;1.70;;;;;;;16.05;68.73;100462.72;5054012;28;20064;-79
2022/08/28 01:14:17;;;;;;;6.53;1.95;;;;;;;15.90;69.10;100463.59;5053943;28;20356;-78
2022/08/28 01:16:43;;;;;;;6.82;1.73;;;;;;;15.92;69.32;100464.81;5054269;28;20025;-79
2022/08/28 01:19:16;;;;;;;4.72;1.40;;;;;;;15.95;69.18;100464.09;5054646;28;20029;-78
2022/08/28 01:22:19;;;;;;;7.68;2.25;;;;;;;15.77;70.04;100470.38;5054260;28;20044;-78
2022/08/28 01:24:47;;;;;;;5.07;1.60;;;;;;;15.71;70.14;100474.59;5051184;28;20041;-78
2022/08/28 01:27:12;;;;;;;5.43;1.65;;;;;;;15.91;69.50;100465.19;5054028;28;20387;-78
2022/08/28 01:29:38;;;;;;;4.72;1.33;;;;;;;15.94;69.42;100473.50;5054110;28;20033;-78
2022/08/28 01:32:04;;;;;;;;;;;;;;;15.82;69.53;100470.91;5054673;28;20039;-79
2022/08/28 01:34:30;;;;;;;4.53;1.60;;;;;;;15.99;69.17;100477.13;5036038;28;19928;-78
2022/08/28 01:36:56;;;;;;;;;;;;;;;15.82;69.85;100475.63;5054275;28;20056;-78
2022/08/28 01:39:24;;;;;;;5.18;2.28;;;;;;;15.99;69.02;100485.38;5053758;28;20343;-79
2022/08/28 01:41:51;;;;;;;5.57;1.55;;;;;;;15.89;69.41;100479.28;5054012;28;20041;-79
2022/08/28 01:44:21;;;;;;;6.45;1.60;;;;;;;15.76;70.07;100479.78;5053543;28;20122;-79
2022/08/28 01:46:46;;;;;;;4.32;1.70;;;;;;;15.67;70.34;100485.50;5053152;28;20028;-79
2022/08/28 01:49:12;;;;;;;8.55;2.03;;;;;;;15.68;70.25;100487.09;5053705;28;20140;-79
2022/08/28 01:51:39;;;;;;;6.63;1.88;;;;;;;15.74;70.34;100482.09;5053598;28;20519;-79
2022/08/28 01:54:05;;;;;;;5.88;1.77;;;;;;;15.79;69.93;100485.38;5053312;28;20053;-79
2022/08/28 01:56:32;;;;;;;10.00;1.60;;;;;;;15.63;70.71;100479.94;5053401;28;20044;-79
2022/08/28 01:59:00;;;;;;;6.15;1.70;;;;;;;15.65;70.63;100482.31;5053555;28;20040;-79
2022/08/28 02:01:25;;;;;;;4.40;1.58;;;;;;;15.66;70.52;100480.38;5053436;28;20039;-79
2022/08/28 02:03:51;;;;;;;7.05;1.90;;;;;;;15.69;70.47;100482.38;5035213;28;20045;-79
2022/08/28 02:06:17;;;;;;;4.97;1.77;;;;;;;15.57;70.77;100483.28;5053294;28;20136;-78
2022/08/28 02:08:43;;;;;;;5.53;1.35;;;;;;;15.57;70.85;100478.59;5052844;28;20068;-78
2022/08/28 02:11:09;;;;;;;;;;;;;;;15.59;70.79;100478.25;5034990;28;20345;-78
2022/08/28 02:13:36;;;;;;;7.03;2.30;;;;;;;15.53;71.11;100482.41;5053091;28;19920;-79
2022/08/28 02:16:02;;;;;;;5.35;1.60;;;;;;;15.47;71.43;100490.13;5034959;28;20435;-79
2022/08/28 02:18:28;;;;;;;7.05;1.90;;;;;;;15.59;71.03;100486.47;5034836;28;20099;-79
2022/08/28 02:20:53;;;;;;;6.43;1.70;;;;;;;15.52;71.37;100491.81;5052483;28;20036;-78
2022/08/28 02:23:19;;;;;;;9.40;1.98;;;;;;;15.51;71.43;100492.97;5052534;28;20415;-78
2022/08/28 02:25:44;;;;;;;6.93;1.63;;;;;;;15.51;71.32;100493.75;5052187;28;20107;-79
2022/08/28 02:28:09;;;;;;;;;;;;;;;15.43;71.51;100494.72;5052711;28;20064;-78
2022/08/28 02:30:35;;;;;;;7.55;2.25;;;;;;;15.33;71.94;100487.88;5052456;28;19909;-78
2022/08/28 02:33:01;;;;;;;9.63;1.70;;;;;;;15.28;72.21;100501.03;5052469;28;20075;-79
2022/08/28 02:35:26;;;;;;;;;;;;;;;15.22;72.41;100489.56;5052992;28;20048;-79
2022/08/28 02:37:52;;;;;;;6.88;1.58;;;;;;;15.19;72.74;100494.97;5052387;28;19912;-79
2022/08/28 02:40:20;;;;;;;4.75;1.63;;;;;;;15.27;72.24;100491.22;5052206;28;20056;-79
2022/08/28 02:42:46;;;;;;;6.40;1.95;;;;;;;15.23;72.55;100493.88;5052530;28;20115;-78
2022/08/28 02:45:13;;;;;;;6.85;2.42;;;;;;;15.15;72.81;100496.84;5051935;28;20116;-79
2022/08/28 02:47:41;;;;;;;5.05;2.08;;;;;;;15.21;72.66;100496.19;5052278;28;20155;-79
2022/08/28 02:50:08;;;;;;;5.13;1.90;;;;;;;15.19;72.62;100500.47;5052501;28;20094;-79
2022/08/28 02:52:35;;;;;;;7.53;2.00;;;;;;;15.20;72.80;100496.56;5052371;28;20033;-80
2022/08/28 02:55:01;;;;;;;4.85;1.73;;;;;;;15.28;72.79;100503.78;5034411;28;20032;-79
2022/08/28 02:57:29;;;;;;;6.95;2.25;;;;;;;15.33;71.97;100501.59;5034167;28;20048;-79
2022/08/28 02:59:55;;;;;;;5.75;2.30;;;;;;;15.23;72.35;100495.84;5052273;28;20116;-79
2022/08/28 03:02:21;;;;;;;7.15;2.00;;;;;;;15.18;72.67;100496.91;5052014;28;20368;-79
2022/08/28 03:04:47;;;;;;;;;;;;;;;15.13;72.83;100502.69;5052483;28;20045;-80
2022/08/28 03:07:14;;;;;;;4.28;1.45;;;;;;;15.07;73.20;100503.28;5051787;28;20007;-79
2022/08/28 03:09:40;;;;;;;7.45;1.95;;;;;;;14.99;73.64;100499.59;5051755;28;20410;-80
2022/08/28 03:12:06;;;;;;;5.65;1.83;;;;;;;14.92;73.97;100500.19;5051767;28;20036;-79
2022/08/28 03:14:32;;;;;;;8.63;2.55;;;;;;;14.96;73.88;100503.06;5052271;28;20064;-79
2022/08/28 03:16:58;;;;;;;7.18;1.98;;;;;;;14.91;74.08;100498.59;5051862;28;20112;-80
2022/08/28 03:19:23;;;;;;;;;;;;;;;14.79;74.64;100503.41;5052637;28;20466;-80
2022/08/28 03:21:49;;;;;;;9.07;3.47;;;;;;;14.94;74.12;100502.59;5051686;28;19954;-79
2022/08/28 03:24:14;;;;;;;6.90;1.60;;;;;;;14.95;74.07;100504.19;5051816;28;20645;-79
2022/08/28 03:26:39;;;;;;;6.40;1.75;;;;;;;14.95;74.01;100502.25;5051689;28;20279;-80
2022/08/28 03:29:05;;;;;;;;;;;;;;;14.93;74.33;100492.78;5052320;28;20033;-79
2022/08/28 03:31:32;;;;;;;8.07;2.17;;;;;;;14.84;74.60;100501.19;5052061;28;19919;-79
2022/08/28 03:33:58;;;;;;;8.55;1.73;;;;;;;14.81;74.69;100496.41;5051770;28;20152;-79
2022/08/28 03:36:26;;;;;;;8.48;2.05;;;;;;;14.75;74.88;100497.81;5051837;28;20108;-79
2022/08/28 03:38:53;;;;;;;6.20;1.55;;;;;;;14.82;74.75;100503.50;5051779;28;20035;-79
2022/08/28 03:41:22;;;;;;;5.72;2.22;;;;;;;14.79;74.80;100497.94;5051505;28;20036;-80
2022/08/28 03:43:47;;;;;;;5.25;1.63;;;;;;;14.71;75.12;100503.22;5051445;28;20026;-80
2022/08/28 03:46:18;;;;;;;6.50;1.88;;;;;;;14.73;74.96;100495.44;5051737;28;20112;-80
2022/08/28 03:48:44;;;;;;;4.47;1.75;;;;;;;14.67;75.26;100496.84;5051768;28;20037;-80
2022/08/28 03:51:13;;;;;;;6.35;1.80;;;;;;;14.73;74.98;100500.91;5033949;28;20116;-80
2022/08/28 03:53:39;;;;;;;3.75;1.55;;;;;;;14.67;75.45;100496.06;5051707;28;20033;-79
2022/08/28 03:56:07;;;;;;;7.05;1.92;;;;;;;14.63;75.64;100508.88;5051560;28;20149;-79
2022/08/28 03:58:33;;;;;;;6.10;1.58;;;;;;;14.66;75.42;100500.75;5051579;28;20025;-79
2022/08/28 04:00:58;;;;;;;;;;;;;;;14.64;75.60;100502.25;5051800;28;20039;-79
2022/08/28 04:03:23;;;;;;;5.15;1.52;;;;;;;14.62;75.72;100508.09;5051444;28;20247;-79
2022/08/28 04:05:49;;;;;;;4.68;1.77;;;;;;;14.58;76.10;100503.63;5051471;28;20056;-79
2022/08/28 04:08:17;;;;;;;7.57;2.20;;;;;;;14.66;75.60;100502.69;5052014;28;20047;-79
2022/08/28 04:10:44;;;;;;;7.32;2.08;;;;;;;14.60;75.73;100502.13;5054926;28;20055;-80
2022/08/28 04:13:11;;;;;;;7.13;1.83;;;;;;;14.49;76.24;100511.25;5055395;28;20033;-79
2022/08/28 04:15:36;;;;;;;5.70;2.33;;;;;;;14.52;76.28;100507.78;5054988;28;20136;-80
2022/08/28 04:18:02;;;;;;;6.65;2.15;;;;;;;14.68;75.63;100509.41;5054881;28;20102;-78
2022/08/28 04:20:27;;;;;;;8.55;2.20;;;;;;;14.65;75.70;100510.13;5055227;28;20043;-78
2022/08/28 04:22:52;;;;;;;6.57;1.98;;;;;;;14.68;76.03;100511.34;5054676;28;20103;-77
2022/08/28 04:25:18;;;;;;;;;;;;;;;14.66;75.65;100516.38;5055192;28;20040;-78
2022/08/28 04:27:43;;;;;;;7.60;1.70;;;;;;;14.67;75.54;100524.25;5036962;28;20378;-78
2022/08/28 04:30:09;;;;;;;;;;;;;;;14.61;75.78;100522.94;5055237;28;20039;-78
2022/08/28 04:32:36;;;;;;;4.45;1.40;;;;;;;14.66;75.78;100530.88;5054875;28;19913;-78
2022/08/28 04:35:03;;;;;;;5.93;1.58;;;;;;;14.64;75.79;100535.94;5054973;28;20029;-78
2022/08/28 04:37:29;;;;;;;3.58;1.92;;;;;;;14.52;75.87;100536.00;5054506;28;20035;-78
2022/08/28 04:39:54;;;;;;;4.65;1.85;;;;;;;14.55;75.94;100532.53;5054589;28;20025;-79
2022/08/28 04:42:19;;;;;;;4.32;1.40;;;;;;;14.49;76.01;100533.97;5054679;28;20117;-78
2022/08/28 04:44:45;;;;;;;7.63;2.00;;;;;;;14.53;76.00;100529.38;5054505;28;20033;-78
2022/08/28 04:47:10;;;;;;;8.20;2.30;;;;;;;14.55;75.84;100526.28;5054673;28;20654;-78
2022/08/28 04:49:36;;;;;;;5.20;1.77;;;;;;;14.56;75.67;100531.41;5054549;28;20566;-79
2022/08/28 04:52:02;;;;;;;4.18;1.40;;;;;;;14.66;75.20;100530.88;5054606;28;20302;-79
2022/08/28 04:54:27;;;;;;;;;;;;;;;14.70;75.22;100540.00;5054898;28;20083;-79
2022/08/28 04:56:53;;;;;;;5.77;1.87;;;;;;;14.63;75.14;100542.56;5054472;28;19956;-79
2022/08/28 04:59:18;;;;;;;5.43;1.25;;;;;;;14.68;75.15;100536.00;5054439;28;20256;-79
2022/08/28 05:01:43;;;;;;;5.47;1.38;;;;;;;14.68;74.92;100542.28;5054640;28;20040;-80
2022/08/28 05:04:10;;;;;;;;;;;;;;;14.72;74.88;100537.69;5054756;28;20045;-79
2022/08/28 05:06:42;;;;;;;4.40;1.60;;;;;;;14.65;75.35;100543.00;5054159;28;19916;-79
2022/08/28 05:09:07;;;;;;;5.95;1.45;;;;;;;14.60;75.35;100542.44;5054462;28;20044;-79
2022/08/28 05:11:33;;;;;;;5.00;1.13;;;;;;;14.54;75.58;100536.44;5054004;28;20112;-80
2022/08/28 05:13:58;;;;;;;;;;;;;;;14.46;75.80;100544.81;5055032;28;20395;-79
2022/08/28 05:16:24;;;;;;;5.78;1.20;;;;;;;14.46;76.07;100553.03;5054275;28;19939;-79
2022/08/28 05:18:49;;;;;;;;;;;;;;;14.49;75.97;100553.13;5054174;28;20112;-81
2022/08/28 05:21:21;;;;;;;3.67;1.30;;;;;;;14.51;75.81;100563.75;5054121;28;19916;-85
2022/08/28 05:23:49;;;;;;;5.05;1.40;;;;;;;14.59;75.73;100552.59;5055076;28;20024;-79
2022/08/28 05:26:16;;;;;;;7.75;1.70;;;;;;;14.60;75.45;100556.94;5055067;28;20052;-79
2022/08/28 05:28:41;;;;;;;5.50;1.98;;;;;;;14.62;75.53;100562.91;5053422;28;20040;-79
2022/08/28 05:31:14;;;;;;;4.97;1.40;;;;;;;14.67;75.44;100559.09;5053913;28;20376;-79
2022/08/28 05:33:40;;;;;;;6.60;1.65;;;;;;;14.62;75.44;100568.38;5053553;28;20036;-79
2022/08/28 05:36:07;;;;;;;6.35;2.13;;;;;;;14.64;75.41;100568.81;5035826;28;20355;-79
2022/08/28 05:38:33;;;;;;;;;;;;;;;14.61;75.57;100577.75;5053827;28;20037;-79
2022/08/28 05:40:59;;;;;;;5.50;1.48;;;;;;;14.71;75.12;100576.41;5053817;28;19952;-80
2022/08/28 05:43:24;;;;;;;7.00;1.60;;;;;;;14.75;74.97;100577.31;5053691;28;20065;-79
2022/08/28 05:46:00;;;;;;;8.48;2.92;;;;;;;14.78;74.90;100573.88;5035631;28;20029;-80
2022/08/28 05:48:28;;;;;;;6.43;1.95;;;;;;;14.83;74.92;100581.03;5053944;28;20037;-79
2022/08/28 05:50:54;;;;;;;7.75;1.98;;;;;;;14.87;74.68;100577.25;5053341;28;20483;-79
2022/08/28 05:53:20;;;;;;;4.70;1.75;;;;;;;14.63;75.33;100580.13;5053087;28;20082;-78
2022/08/28 05:55:45;;;;;;;11.63;1.55;;;;;;;14.84;74.52;100577.94;5035097;28;20096;-79
2022/08/28 05:58:30;;;;;;;;;;;;;;;14.91;74.54;100580.06;5053532;28;20037;-79
2022/08/28 06:01:22;;;;;;;6.03;2.10;;;;;;;14.77;74.66;100585.19;5053189;28;20007;-81
2022/08/28 06:04:00;;;;;;;6.07;2.05;;;;;;;14.77;74.72;100580.50;5053470;28;20056;-81
2022/08/28 06:06:28;;;;;;;5.55;1.52;;;;;;;14.86;74.80;100585.81;5053532;28;20075;-79
2022/08/28 06:09:03;;;;;;;4.25;1.40;;;;;;;14.83;74.52;100586.53;5035075;28;20472;-80
2022/08/28 06:11:29;;;;;;;6.85;1.67;;;;;;;14.74;75.21;100584.72;5034938;28;20126;-80
2022/08/28 06:13:57;;;;;;;4.70;1.80;;;;;;;14.92;74.73;100589.88;5052901;28;20353;-79
2022/08/28 06:16:22;;;;;;;6.22;1.55;;;;;;;15.19;73.36;100588.22;5052862;28;20029;-80
2022/08/28 06:18:50;;;;;;;3.58;1.33;;;;;;;15.25;73.44;100584.84;5052660;28;20101;-80
2022/08/28 06:21:15;;;;;;;5.65;1.67;;;;;;;15.32;73.16;100589.75;5052640;28;20033;-79
2022/08/28 06:23:41;;;;;;;8.52;2.45;;;;;;;15.33;72.84;100596.81;5053935;28;20366;-79
2022/08/28 06:26:06;;;;;;;;;;;;;;;15.29;72.80;100593.19;5052938;28;20069;-79
2022/08/28 06:28:32;;;;;;;4.53;1.37;;;;;;;15.27;72.98;100590.78;5052663;28;20007;-80
2022/08/28 06:31:03;;;;;;;4.50;1.65;;;;;;;15.29;72.66;100598.69;5051764;28;20413;-81
2022/08/28 06:33:29;;;;;;;6.25;2.10;;;;;;;15.35;72.24;100597.25;5053023;28;20087;-79
2022/08/28 06:35:55;;;;;;;6.45;1.40;;;;;;;15.34;72.48;100607.44;5052359;28;20029;-79
2022/08/28 06:38:23;;;;;;;5.78;1.70;;;;;;;15.28;72.74;100602.56;5052751;28;20059;-79
2022/08/28 06:40:52;;;;;;;3.42;1.13;;;;;;;15.29;72.68;100606.91;5052510;28;20082;-79
2022/08/28 06:43:20;;;;;;;3.53;1.23;;;;;;;15.43;71.99;100601.75;5052176;28;20036;-80
2022/08/28 06:45:47;;;;;;;4.75;1.20;;;;;;;15.43;71.78;100611.94;5052439;28;20356;-79
2022/08/28 06:48:15;;;;;;;4.63;1.83;;;;;;;15.43;71.78;100609.97;5052753;28;20041;-78
2022/08/28 06:50:44;;;;;;;4.90;1.83;;;;;;;15.46;71.77;100617.53;5052432;28;20033;-78
2022/08/28 06:53:11;;;;;;;7.68;1.75;;;;;;;15.49;71.84;100613.28;5052220;28;20230;-78
2022/08/28 06:55:37;;;;;;;3.83;1.10;;;;;;;15.63;70.76;100617.19;5051891;28;20131;-77
2022/08/28 06:58:04;;;;;;;5.95;1.83;;;;;;;15.71;70.87;100615.38;5052181;28;20033;-77
2022/08/28 07:00:30;;;;;;;4.95;1.50;;;;;;;15.92;70.37;100626.06;5052278;28;20232;-78
2022/08/28 07:02:56;;;;;;;7.97;1.58;;;;;;;15.89;69.60;100622.06;5051733;28;20037;-78
2022/08/28 07:05:21;;;;;;;5.45;1.67;;;;;;;15.74;70.30;100617.41;5033836;28;20143;-78
2022/08/28 07:07:47;;;;;;;5.28;1.13;;;;;;;15.94;69.57;100623.75;5034302;28;20041;-79
2022/08/28 07:10:12;;;;;;;;;;;;;;;15.81;69.65;100614.84;5052449;28;20025;-79
2022/08/28 07:12:38;;;;;;;6.90;1.80;;;;;;;15.78;69.92;100621.03;5052253;28;19908;-78
2022/08/28 07:15:05;;;;;;;4.20;1.23;;;;;;;15.87;69.83;100624.38;5052161;28;20107;-79
2022/08/28 07:17:30;;;;;;;4.85;2.28;;;;;;;16.04;69.16;100627.88;5052089;28;20479;-79
2022/08/28 07:19:56;;;;;;;5.70;1.52;;;;;;;16.36;68.26;100625.84;5052143;28;20029;-79
2022/08/28 07:22:21;;;;;;;4.85;1.42;;;;;;;16.58;67.42;100627.06;5033873;28;20047;-80
2022/08/28 07:24:47;;;;;;;9.68;1.50;;;;;;;16.76;66.71;100634.50;5034073;28;20035;-78
2022/08/28 07:27:12;;;;;;;;;;;;;;;16.88;66.15;100627.28;5052287;28;20052;-78
2022/08/28 07:29:38;;;;;;;8.63;1.33;;;;;;;16.78;65.78;100634.16;5052016;28;19908;-79
2022/08/28 07:32:03;;;;;;;;;;;;;;;16.84;65.63;100632.72;5034504;28;20037;-77
2022/08/28 07:34:29;;;;;;;2.97;0.82;;;;;;;16.95;65.41;100624.63;5051942;28;19920;-82
2022/08/28 07:36:55;;;;;;;;;;;;;;;17.09;64.65;100635.91;5052370;28;20044;-79
2022/08/28 07:39:20;;;;;;;7.53;1.35;;;;;;;16.95;65.00;100632.88;5033958;28;19913;-77
2022/08/28 07:41:49;;;;;;;;;;;;;;;17.04;64.36;100633.47;5052155;28;20033;-80
2022/08/28 07:47:03;;;;;;;5.30;1.40;;;;;;;17.14;64.00;100630.91;5055692;28;20048;-78
2022/08/28 07:49:30;;;;;;;2.60;0.80;;;;;;;17.25;63.82;100633.84;5055886;28;20466;-78
2022/08/28 07:51:56;;;;;;;6.57;1.60;;;;;;;17.39;63.67;100636.03;5055527;28;20040;-80
2022/08/28 07:54:22;;;;;;;;;;;;;;;17.56;63.16;100641.03;5055940;28;20029;-80
2022/08/28 07:56:47;;;;;;;4.80;1.45;;;;;;;17.54;62.72;100640.63;5055459;28;19962;-81
2022/08/28 07:59:13;;;;;;;;;;;;;;;17.56;63.49;100651.25;5056264;28;20096;-81
2022/08/28 08:01:42;;;;;;;5.38;1.15;;;;;;;17.27;64.09;100652.72;5055964;28;19999;-81
2022/08/28 08:04:11;;;;;;;3.58;1.08;;;;;;;17.54;63.04;100648.88;5037289;28;20044;-79
2022/08/28 08:06:37;;;;;;;5.45;1.58;;;;;;;17.75;62.83;100653.94;5055885;28;20033;-81
2022/08/28 08:09:05;;;;;;;4.85;1.00;;;;;;;17.87;62.43;100655.72;5057054;28;20115;-82
2022/08/28 08:11:30;;;;;;;2.28;0.80;;;;;;;17.79;62.97;100652.03;5055989;28;20060;-82
2022/08/28 08:13:56;;;;;;;;;;;;;;;17.58;63.09;100655.22;5055664;28;20421;-77
2022/08/28 08:16:23;;;;;;;4.10;0.90;;;;;;;17.65;62.49;100652.59;5054929;28;20003;-76
2022/08/28 08:18:50;;;;;;;6.43;1.33;;;;;;;17.66;62.41;100651.44;5055044;28;20083;-79
2022/08/28 08:21:19;;;;;;;6.10;1.40;;;;;;;17.39;63.04;100649.78;5054769;28;20043;-78
2022/08/28 08:23:46;;;;;;;3.00;1.10;;;;;;;17.53;63.74;100657.50;5055347;28;20112;-79
2022/08/28 08:26:16;;;;;;;4.28;1.38;;;;;;;17.84;62.17;100657.25;5036481;28;20029;-80
2022/08/28 08:28:43;;;;;;;5.55;1.45;;;;;;;17.90;61.73;100653.00;5054946;28;20123;-79
2022/08/28 08:31:12;;;;;;;7.30;1.88;;;;;;;18.19;59.93;100656.16;5036824;28;20075;-78
2022/08/28 08:33:41;;;;;;;5.80;1.27;;;;;;;18.31;59.67;100669.72;5036845;28;20037;-77
2022/08/28 08:36:08;;;;;;;3.40;1.25;;;;;;;18.09;59.49;100663.09;5054816;28;20033;-77
2022/08/28 08:38:35;;;;;;;4.50;1.20;;;;;;;17.95;59.99;100662.91;5054433;28;20047;-77
2022/08/28 08:41:05;;;;;;;4.45;1.27;;;;;;;18.14;59.12;100657.28;5054447;28;20032;-77
2022/08/28 08:43:41;;;;;;;4.40;1.40;;;;;;;18.29;58.84;100661.81;5055121;28;20092;-77
2022/08/28 08:46:08;;;;;;;3.10;0.95;;;;;;;18.37;58.36;100656.41;5054481;28;20459;-74
2022/08/28 08:48:35;;;;;;;4.80;1.20;;;;;;;18.29;58.49;100672.84;5054467;28;20072;-76
2022/08/28 08:51:05;;;;;;;2.38;0.75;;;;;;;18.15;58.76;100667.16;5054212;28;20028;-76
2022/08/28 08:54:01;;;;;;;4.20;1.38;;;;;;;18.71;56.60;100666.31;5035931;28;20120;-75
2022/08/28 08:56:26;;;;;;;3.20;1.10;;;;;;;18.89;55.47;100658.22;5054313;28;20028;-75
2022/08/28 08:58:53;;;;;;;6.40;1.83;;;;;;;18.28;56.75;100668.50;5054196;28;20116;-79
2022/08/28 09:01:30;;;;;;;2.72;1.00;;;;;;;18.41;56.96;100660.00;5054055;28;20033;-76
2022/08/28 09:04:08;;;;;;;3.65;1.30;;;;;;;18.50;56.66;100668.78;5054150;28;20142;-77
2022/08/28 09:06:47;;;;;;;4.47;1.27;;;;;;;18.48;56.23;100666.41;5053890;28;20067;-78
2022/08/28 09:09:34;;;;;;;4.70;1.10;;;;;;;18.62;55.71;100668.53;5053454;28;20490;-77
2022/08/28 09:12:02;;;;;;;;;;;;;;;18.53;55.21;100666.06;5054010;28;20390;-77
2022/08/28 09:14:42;;;;;;;5.32;1.27;;;;;;;18.51;55.71;100662.09;5053902;28;19999;-78
2022/08/28 09:17:10;;;;;;;2.55;1.05;;;;;;;18.51;56.05;100668.41;5054148;28;20083;-78
2022/08/28 09:19:36;;;;;;;3.75;1.30;;;;;;;18.47;56.22;100669.50;5053750;28;20419;-77
2022/08/28 09:22:02;;;;;;;5.07;2.05;;;;;;;18.59;55.58;100661.00;5053579;28;20036;-78
2022/08/28 09:24:29;;;;;;;;;;;;;;;18.79;55.79;100669.94;5054344;28;20444;-77
2022/08/28 09:27:25;;;;;;;3.88;1.00;;;;;;;19.03;54.35;100663.13;5053981;28;19913;-77
2022/08/28 09:30:06;;;;;;;4.32;1.08;;;;;;;19.27;53.16;100665.31;5053451;28;20049;-77
2022/08/28 09:32:35;;;;;;;4.13;1.15;;;;;;;18.99;53.68;100671.38;5053442;28;20123;-77
2022/08/28 09:35:06;;;;;;;3.72;0.80;;;;;;;18.97;54.21;100667.38;5053750;28;20056;-77
2022/08/28 09:37:33;;;;;;;4.88;1.48;;;;;;;18.92;54.71;100672.06;5053323;28;20456;-77
2022/08/28 09:40:17;;;;;;;4.40;1.50;;;;;;;19.01;54.01;100665.47;5035213;28;20039;-78
2022/08/28 09:43:30;;;;;;;2.70;0.82;;;;;;;18.70;54.26;100669.44;5035214;28;20043;-79
2022/08/28 09:46:20;;;;;;;3.15;1.15;;;;;;;19.15;53.36;100673.91;5053286;28;20028;-78
2022/08/28 09:48:51;;;;;;;3.90;1.10;;;;;;;19.02;54.00;100680.84;5052780;28;20041;-78
2022/08/28 09:51:19;;;;;;;6.05;1.65;;;;;;;18.52;54.51;100674.72;5053813;28;20112;-79
2022/08/28 09:53:50;;;;;;;8.43;1.40;;;;;;;19.01;54.29;100677.28;5053662;28;20120;-78
2022/08/28 09:56:17;;;;;;;2.63;0.88;;;;;;;19.27;53.77;100668.06;5053054;28;20183;-78
2022/08/28 09:59:08;;;;;;;3.45;1.10;;;;;;;19.49;52.23;100671.84;5053323;28;20036;-78
2022/08/28 10:01:48;;;;;;;3.17;1.00;;;;;;;19.66;51.56;100671.22;5043554;28;20040;-78
2022/08/28 10:04:22;;;;;;;3.80;0.90;;;;;;;19.55;51.46;100672.31;5052911;28;20045;-78
2022/08/28 10:06:51;;;;;;;3.70;1.02;;;;;;;19.39;51.86;100667.81;5052025;28;20120;-81
2022/08/28 10:09:38;;;;;;;3.40;1.17;;;;;;;19.76;51.10;100667.72;5052828;28;20135;-77
2022/08/28 10:12:06;;;;;;;2.95;0.98;;;;;;;19.60;51.22;100666.41;5053237;28;20039;-78
2022/08/28 10:14:40;;;;;;;4.68;1.23;;;;;;;19.53;51.89;100662.41;5052949;28;20029;-77
2022/08/28 10:17:08;;;;;;;5.82;1.58;;;;;;;20.06;50.80;100672.28;5052819;28;20029;-77
2022/08/28 10:19:51;;;;;;;2.88;0.80;;;;;;;20.28;49.37;100664.91;5052864;28;20116;-78
2022/08/28 10:22:42;;;;;;;4.30;0.98;;;;;;;20.20;50.25;100666.84;5035168;28;20044;-78
2022/08/28 10:25:25;;;;;;;4.15;1.10;;;;;;;20.20;49.53;100658.53;5052628;28;20029;-78
2022/08/28 10:28:05;;;;;;;4.38;0.95;;;;;;;19.97;50.14;100658.00;5052692;28;20032;-78
2022/08/28 10:30:35;;;;;;;3.70;1.40;;;;;;;19.68;50.40;100654.25;5052817;28;20041;-78
2022/08/28 10:33:26;;;;;;;3.42;1.48;;;;;;;20.33;49.41;100659.03;5052395;28;20039;-78
2022/08/28 10:35:58;;;;;;;2.63;0.90;;;;;;;20.42;48.05;100659.47;5052680;28;20075;-77
2022/08/28 10:38:41;;;;;;;2.50;0.90;;;;;;;20.34;48.54;100660.59;5052812;28;20508;-79
2022/08/28 10:41:20;;;;;;;5.20;1.15;;;;;;;20.22;49.41;100658.16;5052322;28;20056;-78
2022/08/28 10:43:54;;;;;;;2.30;1.10;;;;;;;20.80;47.78;100657.22;5052514;28;20041;-78
2022/08/28 10:46:26;;;;;;;3.92;0.90;;;;;;;20.85;47.42;100654.91;5051846;28;20029;-78
2022/08/28 10:49:22;;;;;;;4.15;1.83;;;;;;;20.65;47.64;100650.84;5052418;28;20033;-78
2022/08/28 10:52:07;;;;;;;2.38;0.82;;;;;;;20.79;47.54;100653.69;5052037;28;20395;-78
2022/08/28 10:54:43;;;;;;;4.18;1.58;;;;;;;20.77;47.30;100658.03;5052069;28;20489;-79
2022/08/28 10:57:30;;;;;;;3.03;1.15;;;;;;;20.87;48.27;100660.03;5052442;28;20029;-79
2022/08/28 10:59:59;;;;;;;3.50;1.15;;;;;;;20.97;46.95;100659.25;5052084;28;20043;-78
2022/08/28 11:02:26;;;;;;;6.35;1.73;;;;;;;20.85;48.12;100654.91;5034513;28;20113;-78
2022/08/28 11:04:54;;;;;;;3.50;0.95;;;;;;;20.54;48.03;100652.81;5034057;28;20107;-77
2022/08/28 11:07:28;;;;;;;3.40;0.90;;;;;;;20.87;47.59;100649.75;5052266;28;20047;-78
2022/08/28 11:09:54;;;;;;;3.50;1.27;;;;;;;21.10;46.69;100646.63;5051828;28;20033;-78
2022/08/28 11:12:19;;;;;;;7.53;1.38;;;;;;;20.87;47.00;100649.75;5051795;28;20052;-78
2022/08/28 11:14:47;;;;;;;2.33;0.90;;;;;;;21.02;47.06;100645.84;5052023;28;20029;-78
2022/08/28 11:17:26;;;;;;;4.88;1.10;;;;;;;20.85;46.34;100652.13;5053389;28;20255;-77
2022/08/28 11:20:24;;;;;;;3.47;1.08;;;;;;;20.78;48.46;100654.06;5058600;28;20033;-78
2022/08/28 11:23:07;;;;;;;3.17;1.30;;;;;;;20.82;47.26;100654.88;5058404;28;20029;-79
2022/08/28 11:25:48;;;;;;;3.75;1.30;;;;;;;21.50;45.76;100653.00;5058651;28;20032;-78
2022/08/28 11:28:22;;;;;;;3.17;1.20;;;;;;;21.19;45.63;100655.34;5058510;28;20033;-78
2022/08/28 11:30:56;;;;;;;3.05;0.82;;;;;;;21.78;44.81;100664.09;5058101;28;20524;-78
2022/08/28 11:33:42;;;;;;;4.10;1.10;;;;;;;21.15;45.77;100668.38;5058242;28;20070;-78
2022/08/28 11:36:17;;;;;;;3.70;1.00;;;;;;;21.41;45.46;100670.03;5058178;28;20116;-77
2022/08/28 11:38:42;;;;;;;3.17;1.30;;;;;;;22.07;44.13;100664.88;5058330;28;20024;-77
2022/08/28 11:41:21;;;;;;;4.73;1.20;;;;;;;21.78;43.98;100653.00;5058101;28;20078;-78
2022/08/28 11:44:08;;;;;;;1.73;0.70;;;;;;;22.46;42.82;100653.66;5058643;28;20267;-77
2022/08/28 11:46:37;;;;;;;3.10;1.10;;;;;;;22.37;43.59;100658.06;5040331;28;20041;-81
2022/08/28 11:49:22;;;;;;;3.80;1.30;;;;;;;22.90;42.25;100657.84;5058938;28;20044;-81
2022/08/28 11:52:15;;;;;;;3.22;1.05;;;;;;;22.97;41.65;100648.66;5057725;28;20332;-81